Aérodrome :







RETROUVEZ-NOUS SUR...

 
LOGIN :

S'inscrire | Disclaimer

   EN    FR    IT 

 









Légende :    VFR   VFR Marginal   IFR   IFR Intensif   IFR Très Intensif
Visi : 
Plafond : 
>= 8 km
>= 3000ft
5 à 8 km
1000 à 3000 ft
1500m à 5 km
500 à 1000 ft
800 à 1500m
200 à 500 ft
< 800m
< 200 ft
Symboles :   Orages  Brouillard  Fortes neiges  Fortes précipitations  Vent > 20 kt






- Altitude de l'aérodrome : 119 ft
- Code IATA : YPJ


CYLA - Aupaluk

DERNIER METAR :
  • 241700Z VRB02KT 15SM BR SKC M28/M33 A3013 RMK VIS S-SW 6 SLP212

METARs EXPIRÉS :
  • 241600Z 21005KT 15SM BR SKC M30/M34 A3014 RMK VIS S-SW 5 SLP216
  • 241500Z 18006KT 15SM BR FEW008 M31/M35 A3015 RMK SF1 SF TR VIS S-SW 5 SLP219

TAF N/A



MET'MAP, la Météo Aéronautique d'un coup d'oeil ! - Copyright ORBIFLY Décembre 2007 - Disclaimer

ORBIFLY MET'MAP TEAM :

Programmation & Développement : Alexandra Zaïnal
Sur une idée originale de : Baudouin d'Aumeries
Assistance à la programmation : Marc-Olivier Méhu
Soutien technique & logistique : Manuel Goepfert

Contact : metmap@orbifly.com




SOURCES & CREDITS :

   NOAA